Terminal Aerodrome Forecast
Issued by NWS Missoula, MT

Home | Current Version | Previous Version | Text Only | Print | Product List | Glossary On
Versions: 1 2 3 4 5 6 7 8 9 10 11 12 13 14 15 16 17 18 19 20 21 22 23 24
000
FTUS45 KMSO 271432 AAB
TAFMSO
TAF AMD
KMSO 271432Z 2715/2812 VRB03KT 3SM BR BKN020
      TEMPO 2715/2717 1SM BR OVC003
     FM271700 VRB03KT P6SM BKN200=

USA.gov is the U.S. government's official web portal to all federal, state and local government web resources and services.